sensor_id;sensor_type;location;lat;lon;timestamp;P1;durP1;ratioP1;P2;durP2;ratioP2
9771;SDS011;4925;52.588;13.370;2023-02-01T00:00:44;19.33;;;3.27;;
9771;SDS011;4925;52.588;13.370;2023-02-01T00:03:10;8.03;;;2.60;;
9771;SDS011;4925;52.588;13.370;2023-02-01T00:05:37;16.17;;;4.07;;
9771;SDS011;4925;52.588;13.370;2023-02-01T00:08:03;13.60;;;2.83;;
9771;SDS011;4925;52.588;13.370;2023-02-01T00:10:29;12.87;;;2.77;;
9771;SDS011;4925;52.588;13.370;2023-02-01T00:12:55;18.23;;;3.73;;
9771;SDS011;4925;52.588;13.370;2023-02-01T00:15:20;21.00;;;3.30;;
9771;SDS011;4925;52.588;13.370;2023-02-01T00:17:48;21.17;;;4.23;;
9771;SDS011;4925;52.588;13.370;2023-02-01T00:20:17;10.43;;;2.90;;
9771;SDS011;4925;52.588;13.370;2023-02-01T00:22:43;14.17;;;3.33;;
9771;SDS011;4925;52.588;13.370;2023-02-01T00:25:09;14.63;;;2.63;;
9771;SDS011;4925;52.588;13.370;2023-02-01T00:27:34;16.87;;;2.90;;
9771;SDS011;4925;52.588;13.370;2023-02-01T00:30:00;14.10;;;3.73;;
9771;SDS011;4925;52.588;13.370;2023-02-01T00:32:26;17.33;;;3.03;;
9771;SDS011;4925;52.588;13.370;2023-02-01T00:34:51;11.47;;;2.60;;
9771;SDS011;4925;52.588;13.370;2023-02-01T00:37:17;20.23;;;3.30;;
9771;SDS011;4925;52.588;13.370;2023-02-01T00:39:42;13.23;;;2.40;;
9771;SDS011;4925;52.588;13.370;2023-02-01T00:42:08;10.13;;;2.40;;
9771;SDS011;4925;52.588;13.370;2023-02-01T00:44:35;12.77;;;2.57;;
9771;SDS011;4925;52.588;13.370;2023-02-01T00:47:00;14.23;;;2.33;;
9771;SDS011;4925;52.588;13.370;2023-02-01T00:49:26;12.93;;;2.10;;
9771;SDS011;4925;52.588;13.370;2023-02-01T00:51:53;9.60;;;2.33;;
9771;SDS011;4925;52.588;13.370;2023-02-01T00:54:19;14.00;;;3.20;;
9771;SDS011;4925;52.588;13.370;2023-02-01T00:56:44;8.17;;;1.90;;
9771;SDS011;4925;52.588;13.370;2023-02-01T00:59:11;9.57;;;3.03;;
9771;SDS011;4925;52.588;13.370;2023-02-01T01:01:37;8.80;;;1.63;;
9771;SDS011;4925;52.588;13.370;2023-02-01T01:04:03;9.57;;;2.07;;
9771;SDS011;4925;52.588;13.370;2023-02-01T01:06:30;12.30;;;2.10;;
9771;SDS011;4925;52.588;13.370;2023-02-01T01:08:57;8.53;;;1.60;;
9771;SDS011;4925;52.588;13.370;2023-02-01T01:11:26;15.23;;;2.07;;
9771;SDS011;4925;52.588;13.370;2023-02-01T01:13:54;13.33;;;2.40;;
9771;SDS011;4925;52.588;13.370;2023-02-01T01:16:21;8.77;;;2.40;;
9771;SDS011;4925;52.588;13.370;2023-02-01T01:18:50;7.37;;;1.97;;
9771;SDS011;4925;52.588;13.370;2023-02-01T01:21:16;6.27;;;2.37;;
9771;SDS011;4925;52.588;13.370;2023-02-01T01:23:43;14.90;;;2.30;;
9771;SDS011;4925;52.588;13.370;2023-02-01T01:26:14;13.63;;;2.07;;
9771;SDS011;4925;52.588;13.370;2023-02-01T01:28:41;9.90;;;2.30;;
9771;SDS011;4925;52.588;13.370;2023-02-01T01:31:08;9.87;;;1.70;;
9771;SDS011;4925;52.588;13.370;2023-02-01T01:33:35;8.57;;;2.23;;
9771;SDS011;4925;52.588;13.370;2023-02-01T01:36:01;11.13;;;2.03;;
9771;SDS011;4925;52.588;13.370;2023-02-01T01:38:29;9.20;;;2.23;;
9771;SDS011;4925;52.588;13.370;2023-02-01T01:40:55;16.70;;;2.83;;
9771;SDS011;4925;52.588;13.370;2023-02-01T01:43:21;12.20;;;2.63;;
9771;SDS011;4925;52.588;13.370;2023-02-01T01:45:47;9.57;;;2.60;;
9771;SDS011;4925;52.588;13.370;2023-02-01T01:50:50;10.93;;;2.53;;
9771;SDS011;4925;52.588;13.370;2023-02-01T01:53:26;10.07;;;2.47;;
9771;SDS011;4925;52.588;13.370;2023-02-01T01:55:56;12.50;;;2.87;;
9771;SDS011;4925;52.588;13.370;2023-02-01T01:58:23;9.67;;;1.87;;
9771;SDS011;4925;52.588;13.370;2023-02-01T02:00:51;12.70;;;2.27;;
9771;SDS011;4925;52.588;13.370;2023-02-01T02:03:32;17.50;;;3.37;;
9771;SDS011;4925;52.588;13.370;2023-02-01T02:06:03;11.63;;;2.43;;
9771;SDS011;4925;52.588;13.370;2023-02-01T02:08:32;13.57;;;2.60;;
9771;SDS011;4925;52.588;13.370;2023-02-01T02:10:58;9.63;;;3.07;;
9771;SDS011;4925;52.588;13.370;2023-02-01T02:13:37;10.77;;;2.90;;
9771;SDS011;4925;52.588;13.370;2023-02-01T02:24:25;11.33;;;2.50;;
9771;SDS011;4925;52.588;13.370;2023-02-01T02:38:15;20.73;;;3.40;;
9771;SDS011;4925;52.588;13.370;2023-02-01T02:40:53;9.87;;;2.40;;
9771;SDS011;4925;52.588;13.370;2023-02-01T02:43:32;12.67;;;2.63;;
9771;SDS011;4925;52.588;13.370;2023-02-01T02:46:37;14.00;;;3.00;;
9771;SDS011;4925;52.588;13.370;2023-02-01T02:49:34;14.27;;;2.77;;
9771;SDS011;4925;52.588;13.370;2023-02-01T02:55:04;14.47;;;3.40;;
9771;SDS011;4925;52.588;13.370;2023-02-01T02:57:40;6.80;;;2.03;;
9771;SDS011;4925;52.588;13.370;2023-02-01T03:00:28;12.97;;;2.57;;
9771;SDS011;4925;52.588;13.370;2023-02-01T03:03:15;15.17;;;2.33;;
9771;SDS011;4925;52.588;13.370;2023-02-01T03:05:59;7.73;;;2.67;;
9771;SDS011;4925;52.588;13.370;2023-02-01T03:08:29;12.80;;;2.43;;
9771;SDS011;4925;52.588;13.370;2023-02-01T03:19:05;17.17;;;2.80;;
9771;SDS011;4925;52.588;13.370;2023-02-01T03:21:59;15.70;;;3.43;;
9771;SDS011;4925;52.588;13.370;2023-02-01T03:27:08;10.17;;;2.67;;
9771;SDS011;4925;52.588;13.370;2023-02-01T03:32:38;20.27;;;3.20;;
9771;SDS011;4925;52.588;13.370;2023-02-01T03:35:33;12.20;;;2.80;;
9771;SDS011;4925;52.588;13.370;2023-02-01T03:40:55;14.50;;;2.50;;
9771;SDS011;4925;52.588;13.370;2023-02-01T03:43:32;16.87;;;2.90;;
9771;SDS011;4925;52.588;13.370;2023-02-01T03:46:02;17.37;;;3.77;;
9771;SDS011;4925;52.588;13.370;2023-02-01T03:48:31;14.97;;;2.80;;
9771;SDS011;4925;52.588;13.370;2023-02-01T03:50:58;9.57;;;2.43;;
9771;SDS011;4925;52.588;13.370;2023-02-01T03:53:27;13.20;;;2.67;;
9771;SDS011;4925;52.588;13.370;2023-02-01T03:55:54;14.40;;;2.63;;
9771;SDS011;4925;52.588;13.370;2023-02-01T03:58:22;21.93;;;2.70;;
9771;SDS011;4925;52.588;13.370;2023-02-01T04:00:52;14.63;;;2.80;;
9771;SDS011;4925;52.588;13.370;2023-02-01T04:03:21;13.57;;;3.20;;
9771;SDS011;4925;52.588;13.370;2023-02-01T04:05:47;15.73;;;3.50;;
9771;SDS011;4925;52.588;13.370;2023-02-01T04:08:14;15.87;;;2.97;;
9771;SDS011;4925;52.588;13.370;2023-02-01T04:10:39;11.73;;;2.77;;
9771;SDS011;4925;52.588;13.370;2023-02-01T04:13:05;18.83;;;3.60;;
9771;SDS011;4925;52.588;13.370;2023-02-01T04:15:31;14.33;;;3.33;;
9771;SDS011;4925;52.588;13.370;2023-02-01T04:17:58;22.00;;;2.97;;
9771;SDS011;4925;52.588;13.370;2023-02-01T04:20:24;13.63;;;2.97;;
9771;SDS011;4925;52.588;13.370;2023-02-01T04:22:50;10.20;;;2.63;;
9771;SDS011;4925;52.588;13.370;2023-02-01T04:25:15;13.70;;;3.47;;
9771;SDS011;4925;52.588;13.370;2023-02-01T04:27:42;21.20;;;4.07;;
9771;SDS011;4925;52.588;13.370;2023-02-01T04:30:08;24.80;;;4.40;;
9771;SDS011;4925;52.588;13.370;2023-02-01T04:32:37;15.40;;;3.00;;
9771;SDS011;4925;52.588;13.370;2023-02-01T04:35:03;17.47;;;3.07;;
9771;SDS011;4925;52.588;13.370;2023-02-01T04:37:29;15.50;;;3.23;;
9771;SDS011;4925;52.588;13.370;2023-02-01T04:39:55;12.23;;;3.00;;
9771;SDS011;4925;52.588;13.370;2023-02-01T04:42:21;24.37;;;3.87;;
9771;SDS011;4925;52.588;13.370;2023-02-01T04:44:46;15.93;;;3.70;;
9771;SDS011;4925;52.588;13.370;2023-02-01T04:47:12;16.27;;;3.10;;
9771;SDS011;4925;52.588;13.370;2023-02-01T04:49:39;14.63;;;2.83;;
9771;SDS011;4925;52.588;13.370;2023-02-01T04:52:05;22.07;;;3.07;;
9771;SDS011;4925;52.588;13.370;2023-02-01T04:54:30;14.90;;;3.27;;
9771;SDS011;4925;52.588;13.370;2023-02-01T04:56:56;18.17;;;4.37;;
9771;SDS011;4925;52.588;13.370;2023-02-01T04:59:22;19.73;;;3.30;;
9771;SDS011;4925;52.588;13.370;2023-02-01T05:01:47;12.23;;;2.87;;
9771;SDS011;4925;52.588;13.370;2023-02-01T05:04:13;16.70;;;3.30;;
9771;SDS011;4925;52.588;13.370;2023-02-01T05:06:39;11.00;;;3.07;;
9771;SDS011;4925;52.588;13.370;2023-02-01T05:09:04;14.33;;;3.03;;
9771;SDS011;4925;52.588;13.370;2023-02-01T05:11:30;12.10;;;3.27;;
9771;SDS011;4925;52.588;13.370;2023-02-01T05:14:14;17.60;;;3.63;;
9771;SDS011;4925;52.588;13.370;2023-02-01T05:16:40;16.50;;;3.53;;
9771;SDS011;4925;52.588;13.370;2023-02-01T05:19:06;16.07;;;3.27;;
9771;SDS011;4925;52.588;13.370;2023-02-01T05:21:31;12.20;;;3.37;;
9771;SDS011;4925;52.588;13.370;2023-02-01T05:23:57;18.00;;;3.80;;
9771;SDS011;4925;52.588;13.370;2023-02-01T05:26:35;12.97;;;2.90;;
9771;SDS011;4925;52.588;13.370;2023-02-01T05:29:02;12.17;;;3.53;;
9771;SDS011;4925;52.588;13.370;2023-02-01T05:31:28;16.80;;;3.33;;
9771;SDS011;4925;52.588;13.370;2023-02-01T05:33:54;17.63;;;3.70;;
9771;SDS011;4925;52.588;13.370;2023-02-01T05:36:20;14.17;;;3.07;;
9771;SDS011;4925;52.588;13.370;2023-02-01T05:38:46;15.47;;;3.43;;
9771;SDS011;4925;52.588;13.370;2023-02-01T05:41:11;11.43;;;2.90;;
9771;SDS011;4925;52.588;13.370;2023-02-01T05:43:37;16.00;;;3.80;;
9771;SDS011;4925;52.588;13.370;2023-02-01T05:46:03;14.90;;;3.10;;
9771;SDS011;4925;52.588;13.370;2023-02-01T05:48:28;21.93;;;3.73;;
9771;SDS011;4925;52.588;13.370;2023-02-01T05:50:54;11.90;;;2.90;;
9771;SDS011;4925;52.588;13.370;2023-02-01T05:53:20;19.80;;;3.43;;
9771;SDS011;4925;52.588;13.370;2023-02-01T05:55:46;14.43;;;4.00;;
9771;SDS011;4925;52.588;13.370;2023-02-01T05:58:11;14.83;;;3.30;;
9771;SDS011;4925;52.588;13.370;2023-02-01T06:00:37;15.70;;;2.97;;
9771;SDS011;4925;52.588;13.370;2023-02-01T06:03:04;14.30;;;2.80;;
9771;SDS011;4925;52.588;13.370;2023-02-01T06:05:30;12.20;;;3.23;;
9771;SDS011;4925;52.588;13.370;2023-02-01T06:07:55;13.93;;;2.70;;
9771;SDS011;4925;52.588;13.370;2023-02-01T06:10:22;15.13;;;2.87;;
9771;SDS011;4925;52.588;13.370;2023-02-01T06:12:47;9.60;;;2.90;;
9771;SDS011;4925;52.588;13.370;2023-02-01T06:15:14;14.63;;;3.13;;
9771;SDS011;4925;52.588;13.370;2023-02-01T06:17:43;16.07;;;3.27;;
9771;SDS011;4925;52.588;13.370;2023-02-01T06:20:10;10.73;;;2.73;;
9771;SDS011;4925;52.588;13.370;2023-02-01T06:22:37;14.73;;;2.80;;
9771;SDS011;4925;52.588;13.370;2023-02-01T06:25:04;17.10;;;4.23;;
9771;SDS011;4925;52.588;13.370;2023-02-01T06:27:31;17.37;;;4.53;;
9771;SDS011;4925;52.588;13.370;2023-02-01T06:29:58;16.30;;;3.77;;
9771;SDS011;4925;52.588;13.370;2023-02-01T06:32:23;15.73;;;4.10;;
9771;SDS011;4925;52.588;13.370;2023-02-01T06:34:49;18.83;;;3.10;;
9771;SDS011;4925;52.588;13.370;2023-02-01T06:37:17;19.47;;;3.60;;
9771;SDS011;4925;52.588;13.370;2023-02-01T06:39:43;13.87;;;3.77;;
9771;SDS011;4925;52.588;13.370;2023-02-01T06:42:09;21.23;;;3.67;;
9771;SDS011;4925;52.588;13.370;2023-02-01T06:44:35;16.47;;;3.27;;
9771;SDS011;4925;52.588;13.370;2023-02-01T06:47:00;14.43;;;2.77;;
9771;SDS011;4925;52.588;13.370;2023-02-01T06:49:27;17.00;;;3.27;;
9771;SDS011;4925;52.588;13.370;2023-02-01T06:51:53;14.00;;;3.60;;
9771;SDS011;4925;52.588;13.370;2023-02-01T06:54:19;15.47;;;3.13;;
9771;SDS011;4925;52.588;13.370;2023-02-01T06:56:44;14.73;;;3.10;;
9771;SDS011;4925;52.588;13.370;2023-02-01T06:59:10;15.80;;;3.07;;
9771;SDS011;4925;52.588;13.370;2023-02-01T07:01:36;13.23;;;2.93;;
9771;SDS011;4925;52.588;13.370;2023-02-01T07:04:02;14.73;;;3.33;;
9771;SDS011;4925;52.588;13.370;2023-02-01T07:06:28;11.10;;;2.63;;
9771;SDS011;4925;52.588;13.370;2023-02-01T07:08:54;12.37;;;3.57;;
9771;SDS011;4925;52.588;13.370;2023-02-01T07:11:21;15.43;;;3.37;;
9771;SDS011;4925;52.588;13.370;2023-02-01T07:13:46;17.50;;;2.77;;
9771;SDS011;4925;52.588;13.370;2023-02-01T07:16:14;13.33;;;2.70;;
9771;SDS011;4925;52.588;13.370;2023-02-01T07:18:41;12.43;;;3.00;;
9771;SDS011;4925;52.588;13.370;2023-02-01T07:21:07;18.67;;;3.20;;
9771;SDS011;4925;52.588;13.370;2023-02-01T07:23:33;13.63;;;3.63;;
9771;SDS011;4925;52.588;13.370;2023-02-01T07:26:00;13.93;;;2.67;;
9771;SDS011;4925;52.588;13.370;2023-02-01T07:28:28;16.50;;;2.97;;
9771;SDS011;4925;52.588;13.370;2023-02-01T07:30:55;19.87;;;2.70;;
9771;SDS011;4925;52.588;13.370;2023-02-01T07:33:26;10.77;;;2.90;;
9771;SDS011;4925;52.588;13.370;2023-02-01T07:35:52;20.73;;;3.77;;
9771;SDS011;4925;52.588;13.370;2023-02-01T07:38:18;18.47;;;3.90;;
9771;SDS011;4925;52.588;13.370;2023-02-01T07:40:46;16.60;;;3.47;;
9771;SDS011;4925;52.588;13.370;2023-02-01T07:43:12;7.67;;;3.10;;
9771;SDS011;4925;52.588;13.370;2023-02-01T07:45:38;10.17;;;2.30;;
9771;SDS011;4925;52.588;13.370;2023-02-01T07:48:04;11.90;;;3.50;;
9771;SDS011;4925;52.588;13.370;2023-02-01T07:50:29;14.80;;;3.53;;
9771;SDS011;4925;52.588;13.370;2023-02-01T07:52:58;8.73;;;2.37;;
9771;SDS011;4925;52.588;13.370;2023-02-01T07:55:25;12.87;;;2.53;;
9771;SDS011;4925;52.588;13.370;2023-02-01T07:57:51;13.20;;;3.03;;
9771;SDS011;4925;52.588;13.370;2023-02-01T08:00:17;11.10;;;3.13;;
9771;SDS011;4925;52.588;13.370;2023-02-01T08:03:02;12.10;;;3.43;;
9771;SDS011;4925;52.588;13.370;2023-02-01T08:05:29;9.57;;;2.37;;
9771;SDS011;4925;52.588;13.370;2023-02-01T08:07:55;6.97;;;2.67;;
9771;SDS011;4925;52.588;13.370;2023-02-01T08:10:20;12.23;;;2.17;;
9771;SDS011;4925;52.588;13.370;2023-02-01T08:12:46;8.03;;;2.27;;
9771;SDS011;4925;52.588;13.370;2023-02-01T08:15:14;13.50;;;2.80;;
9771;SDS011;4925;52.588;13.370;2023-02-01T08:17:45;11.97;;;2.80;;
9771;SDS011;4925;52.588;13.370;2023-02-01T08:20:16;7.50;;;2.33;;
9771;SDS011;4925;52.588;13.370;2023-02-01T08:22:42;9.77;;;2.40;;
9771;SDS011;4925;52.588;13.370;2023-02-01T08:25:08;6.30;;;2.43;;
9771;SDS011;4925;52.588;13.370;2023-02-01T08:27:34;6.17;;;2.53;;
9771;SDS011;4925;52.588;13.370;2023-02-01T08:30:00;6.70;;;2.77;;
9771;SDS011;4925;52.588;13.370;2023-02-01T08:32:26;11.00;;;2.73;;
9771;SDS011;4925;52.588;13.370;2023-02-01T08:34:52;6.17;;;3.20;;
9771;SDS011;4925;52.588;13.370;2023-02-01T08:37:18;7.57;;;2.37;;
9771;SDS011;4925;52.588;13.370;2023-02-01T08:39:44;5.50;;;2.17;;
9771;SDS011;4925;52.588;13.370;2023-02-01T08:42:10;8.90;;;2.47;;
9771;SDS011;4925;52.588;13.370;2023-02-01T08:44:54;7.13;;;2.77;;
9771;SDS011;4925;52.588;13.370;2023-02-01T08:47:21;14.63;;;6.87;;
9771;SDS011;4925;52.588;13.370;2023-02-01T08:49:47;6.00;;;2.23;;
9771;SDS011;4925;52.588;13.370;2023-02-01T08:52:12;5.50;;;1.63;;
9771;SDS011;4925;52.588;13.370;2023-02-01T08:54:39;4.90;;;1.40;;
9771;SDS011;4925;52.588;13.370;2023-02-01T08:57:06;3.97;;;1.63;;
9771;SDS011;4925;52.588;13.370;2023-02-01T08:59:31;5.53;;;1.77;;
9771;SDS011;4925;52.588;13.370;2023-02-01T09:01:57;3.53;;;1.50;;
9771;SDS011;4925;52.588;13.370;2023-02-01T09:04:23;4.70;;;1.67;;
9771;SDS011;4925;52.588;13.370;2023-02-01T09:06:48;3.23;;;1.50;;
9771;SDS011;4925;52.588;13.370;2023-02-01T09:09:14;2.10;;;1.50;;
9771;SDS011;4925;52.588;13.370;2023-02-01T09:11:40;2.80;;;1.43;;
9771;SDS011;4925;52.588;13.370;2023-02-01T09:14:05;4.17;;;1.30;;
9771;SDS011;4925;52.588;13.370;2023-02-01T09:16:31;9.97;;;5.00;;
9771;SDS011;4925;52.588;13.370;2023-02-01T09:18:57;3.53;;;1.60;;
9771;SDS011;4925;52.588;13.370;2023-02-01T09:21:22;2.53;;;1.23;;
9771;SDS011;4925;52.588;13.370;2023-02-01T09:23:50;4.07;;;1.60;;
9771;SDS011;4925;52.588;13.370;2023-02-01T09:26:16;4.83;;;1.40;;
9771;SDS011;4925;52.588;13.370;2023-02-01T09:28:42;5.77;;;1.33;;
9771;SDS011;4925;52.588;13.370;2023-02-01T09:31:08;3.03;;;1.20;;
9771;SDS011;4925;52.588;13.370;2023-02-01T09:33:33;4.60;;;1.80;;
9771;SDS011;4925;52.588;13.370;2023-02-01T09:36:00;4.07;;;1.20;;
9771;SDS011;4925;52.588;13.370;2023-02-01T09:38:28;2.90;;;1.00;;
9771;SDS011;4925;52.588;13.370;2023-02-01T09:40:54;5.87;;;1.40;;
9771;SDS011;4925;52.588;13.370;2023-02-01T09:43:27;2.73;;;1.10;;
9771;SDS011;4925;52.588;13.370;2023-02-01T09:48:52;3.27;;;1.60;;
9771;SDS011;4925;52.588;13.370;2023-02-01T09:51:21;2.77;;;0.90;;
9771;SDS011;4925;52.588;13.370;2023-02-01T09:54:04;3.17;;;1.53;;
9771;SDS011;4925;52.588;13.370;2023-02-01T09:57:39;6.57;;;2.60;;
9771;SDS011;4925;52.588;13.370;2023-02-01T09:59:50;2.10;;;0.90;;
9771;SDS011;4925;52.588;13.370;2023-02-01T10:02:26;3.53;;;0.80;;
9771;SDS011;4925;52.588;13.370;2023-02-01T10:04:57;3.90;;;1.70;;
9771;SDS011;4925;52.588;13.370;2023-02-01T10:18:50;4.37;;;1.23;;
9771;SDS011;4925;52.588;13.370;2023-02-01T10:21:59;4.13;;;1.67;;
9771;SDS011;4925;52.588;13.370;2023-02-01T10:27:17;6.70;;;1.87;;
9771;SDS011;4925;52.588;13.370;2023-02-01T10:29:47;3.70;;;1.63;;
9771;SDS011;4925;52.588;13.370;2023-02-01T10:32:21;7.17;;;2.83;;
9771;SDS011;4925;52.588;13.370;2023-02-01T10:34:55;5.77;;;2.30;;
9771;SDS011;4925;52.588;13.370;2023-02-01T10:37:28;3.00;;;1.30;;
9771;SDS011;4925;52.588;13.370;2023-02-01T10:39:57;2.53;;;1.30;;
9771;SDS011;4925;52.588;13.370;2023-02-01T10:42:37;5.57;;;1.33;;
9771;SDS011;4925;52.588;13.370;2023-02-01T10:45:05;4.93;;;1.60;;
9771;SDS011;4925;52.588;13.370;2023-02-01T10:47:32;3.57;;;1.20;;
9771;SDS011;4925;52.588;13.370;2023-02-01T10:52:49;4.43;;;1.20;;
9771;SDS011;4925;52.588;13.370;2023-02-01T10:55:36;2.93;;;1.63;;
9771;SDS011;4925;52.588;13.370;2023-02-01T11:00:48;3.73;;;1.20;;
9771;SDS011;4925;52.588;13.370;2023-02-01T11:05:47;3.53;;;1.27;;
9771;SDS011;4925;52.588;13.370;2023-02-01T11:08:16;5.77;;;1.70;;
9771;SDS011;4925;52.588;13.370;2023-02-01T11:10:44;8.90;;;1.70;;
9771;SDS011;4925;52.588;13.370;2023-02-01T11:13:13;6.00;;;1.53;;
9771;SDS011;4925;52.588;13.370;2023-02-01T11:15:44;5.93;;;1.20;;
9771;SDS011;4925;52.588;13.370;2023-02-01T11:18:25;10.03;;;2.03;;
9771;SDS011;4925;52.588;13.370;2023-02-01T11:20:55;8.13;;;2.33;;
9771;SDS011;4925;52.588;13.370;2023-02-01T11:23:22;5.27;;;1.67;;
9771;SDS011;4925;52.588;13.370;2023-02-01T11:25:51;4.90;;;1.70;;
9771;SDS011;4925;52.588;13.370;2023-02-01T11:28:21;9.83;;;2.00;;
9771;SDS011;4925;52.588;13.370;2023-02-01T11:30:54;8.23;;;1.67;;
9771;SDS011;4925;52.588;13.370;2023-02-01T11:33:25;4.80;;;1.93;;
9771;SDS011;4925;52.588;13.370;2023-02-01T11:35:56;8.27;;;1.80;;
9771;SDS011;4925;52.588;13.370;2023-02-01T11:38:32;5.83;;;2.10;;
9771;SDS011;4925;52.588;13.370;2023-02-01T11:41:14;8.00;;;2.00;;
9771;SDS011;4925;52.588;13.370;2023-02-01T11:43:50;3.43;;;1.40;;
9771;SDS011;4925;52.588;13.370;2023-02-01T11:46:22;8.63;;;2.77;;
9771;SDS011;4925;52.588;13.370;2023-02-01T11:48:53;9.37;;;2.27;;
9771;SDS011;4925;52.588;13.370;2023-02-01T12:10:02;7.37;;;1.17;;
9771;SDS011;4925;52.588;13.370;2023-02-01T12:12:38;9.00;;;1.67;;
9771;SDS011;4925;52.588;13.370;2023-02-01T12:26:50;10.90;;;1.40;;
9771;SDS011;4925;52.588;13.370;2023-02-01T12:34:41;6.67;;;1.90;;
9771;SDS011;4925;52.588;13.370;2023-02-01T12:43:34;7.07;;;1.70;;
9771;SDS011;4925;52.588;13.370;2023-02-01T12:46:09;8.97;;;1.87;;
9771;SDS011;4925;52.588;13.370;2023-02-01T12:48:53;7.30;;;2.17;;
9771;SDS011;4925;52.588;13.370;2023-02-01T12:51:33;3.70;;;1.90;;
9771;SDS011;4925;52.588;13.370;2023-02-01T12:56:57;11.87;;;2.53;;
9771;SDS011;4925;52.588;13.370;2023-02-01T12:59:41;6.47;;;1.87;;
9771;SDS011;4925;52.588;13.370;2023-02-01T13:04:52;10.40;;;2.17;;
9771;SDS011;4925;52.588;13.370;2023-02-01T13:07:29;5.70;;;1.30;;
9771;SDS011;4925;52.588;13.370;2023-02-01T13:10:12;0.90;;;0.50;;
9771;SDS011;4925;52.588;13.370;2023-02-01T13:12:44;1.13;;;0.50;;
9771;SDS011;4925;52.588;13.370;2023-02-01T13:15:21;3.27;;;1.10;;
9771;SDS011;4925;52.588;13.370;2023-02-01T13:17:51;1.57;;;0.53;;
9771;SDS011;4925;52.588;13.370;2023-02-01T13:20:25;1.00;;;0.47;;
9771;SDS011;4925;52.588;13.370;2023-02-01T13:23:09;1.90;;;0.80;;
9771;SDS011;4925;52.588;13.370;2023-02-01T13:25:46;4.43;;;1.37;;
9771;SDS011;4925;52.588;13.370;2023-02-01T13:28:25;7.47;;;1.30;;
9771;SDS011;4925;52.588;13.370;2023-02-01T13:39:30;5.63;;;1.60;;
9771;SDS011;4925;52.588;13.370;2023-02-01T13:44:44;7.53;;;2.10;;
9771;SDS011;4925;52.588;13.370;2023-02-01T13:47:32;10.57;;;2.50;;
9771;SDS011;4925;52.588;13.370;2023-02-01T13:50:12;9.77;;;1.77;;
9771;SDS011;4925;52.588;13.370;2023-02-01T13:52:50;7.90;;;2.00;;
9771;SDS011;4925;52.588;13.370;2023-02-01T13:55:36;5.27;;;1.40;;
9771;SDS011;4925;52.588;13.370;2023-02-01T13:58:05;7.37;;;1.53;;
9771;SDS011;4925;52.588;13.370;2023-02-01T14:00:35;4.67;;;1.70;;
9771;SDS011;4925;52.588;13.370;2023-02-01T14:13:46;12.37;;;2.07;;
9771;SDS011;4925;52.588;13.370;2023-02-01T14:26:49;6.90;;;1.70;;
9771;SDS011;4925;52.588;13.370;2023-02-01T14:29:34;6.57;;;1.87;;
9771;SDS011;4925;52.588;13.370;2023-02-01T14:44:50;12.93;;;2.63;;
9771;SDS011;4925;52.588;13.370;2023-02-01T14:52:45;7.97;;;2.17;;
9771;SDS011;4925;52.588;13.370;2023-02-01T14:55:19;7.90;;;1.93;;
9771;SDS011;4925;52.588;13.370;2023-02-01T14:57:53;8.53;;;2.13;;
9771;SDS011;4925;52.588;13.370;2023-02-01T15:00:22;10.43;;;2.53;;
9771;SDS011;4925;52.588;13.370;2023-02-01T15:02:53;7.87;;;2.13;;
9771;SDS011;4925;52.588;13.370;2023-02-01T15:05:23;10.90;;;3.07;;
9771;SDS011;4925;52.588;13.370;2023-02-01T15:07:51;7.67;;;2.30;;
9771;SDS011;4925;52.588;13.370;2023-02-01T15:10:18;6.87;;;2.40;;
9771;SDS011;4925;52.588;13.370;2023-02-01T15:12:46;12.20;;;3.03;;
9771;SDS011;4925;52.588;13.370;2023-02-01T15:15:14;4.07;;;1.67;;
9771;SDS011;4925;52.588;13.370;2023-02-01T15:17:42;4.17;;;1.60;;
9771;SDS011;4925;52.588;13.370;2023-02-01T15:20:17;5.40;;;1.40;;
9771;SDS011;4925;52.588;13.370;2023-02-01T15:22:59;2.13;;;1.10;;
9771;SDS011;4925;52.588;13.370;2023-02-01T15:25:32;4.50;;;1.00;;
9771;SDS011;4925;52.588;13.370;2023-02-01T15:28:03;4.73;;;1.17;;
9771;SDS011;4925;52.588;13.370;2023-02-01T15:30:32;2.63;;;0.97;;
9771;SDS011;4925;52.588;13.370;2023-02-01T15:35:46;2.67;;;1.23;;
9771;SDS011;4925;52.588;13.370;2023-02-01T15:41:07;3.23;;;1.20;;
9771;SDS011;4925;52.588;13.370;2023-02-01T15:49:03;2.40;;;0.93;;
9771;SDS011;4925;52.588;13.370;2023-02-01T15:51:30;1.73;;;0.87;;
9771;SDS011;4925;52.588;13.370;2023-02-01T15:54:04;0.83;;;0.67;;
9771;SDS011;4925;52.588;13.370;2023-02-01T15:56:37;3.70;;;0.67;;
9771;SDS011;4925;52.588;13.370;2023-02-01T15:59:12;2.80;;;0.53;;
9771;SDS011;4925;52.588;13.370;2023-02-01T16:01:40;0.83;;;0.30;;
9771;SDS011;4925;52.588;13.370;2023-02-01T16:06:44;0.80;;;0.30;;
9771;SDS011;4925;52.588;13.370;2023-02-01T16:09:15;1.27;;;0.50;;
9771;SDS011;4925;52.588;13.370;2023-02-01T16:14:50;0.70;;;0.50;;
9771;SDS011;4925;52.588;13.370;2023-02-01T16:17:16;1.97;;;0.57;;
9771;SDS011;4925;52.588;13.370;2023-02-01T16:19:42;1.50;;;0.47;;
9771;SDS011;4925;52.588;13.370;2023-02-01T16:22:07;0.50;;;0.50;;
9771;SDS011;4925;52.588;13.370;2023-02-01T16:24:33;1.87;;;0.50;;
9771;SDS011;4925;52.588;13.370;2023-02-01T16:26:59;0.67;;;0.60;;
9771;SDS011;4925;52.588;13.370;2023-02-01T16:29:24;0.50;;;0.50;;
9771;SDS011;4925;52.588;13.370;2023-02-01T16:31:50;1.13;;;0.37;;
9771;SDS011;4925;52.588;13.370;2023-02-01T16:34:17;0.70;;;0.53;;
9771;SDS011;4925;52.588;13.370;2023-02-01T16:36:43;2.00;;;0.40;;
9771;SDS011;4925;52.588;13.370;2023-02-01T16:39:16;0.47;;;0.47;;
9771;SDS011;4925;52.588;13.370;2023-02-01T16:41:42;1.37;;;0.40;;
9771;SDS011;4925;52.588;13.370;2023-02-01T16:44:08;0.40;;;0.40;;
9771;SDS011;4925;52.588;13.370;2023-02-01T16:46:35;0.23;;;0.23;;
9771;SDS011;4925;52.588;13.370;2023-02-01T16:49:05;0.30;;;0.30;;
9771;SDS011;4925;52.588;13.370;2023-02-01T16:51:33;0.70;;;0.60;;
9771;SDS011;4925;52.588;13.370;2023-02-01T16:53:59;0.63;;;0.40;;
9771;SDS011;4925;52.588;13.370;2023-02-01T16:56:30;0.27;;;0.27;;
9771;SDS011;4925;52.588;13.370;2023-02-01T16:58:57;0.50;;;0.50;;
9771;SDS011;4925;52.588;13.370;2023-02-01T17:01:23;1.40;;;0.50;;
9771;SDS011;4925;52.588;13.370;2023-02-01T17:03:49;1.33;;;0.30;;
9771;SDS011;4925;52.588;13.370;2023-02-01T17:06:22;0.67;;;0.57;;
9771;SDS011;4925;52.588;13.370;2023-02-01T17:08:51;1.10;;;0.50;;
9771;SDS011;4925;52.588;13.370;2023-02-01T17:11:19;0.83;;;0.60;;
9771;SDS011;4925;52.588;13.370;2023-02-01T17:13:45;0.63;;;0.50;;
9771;SDS011;4925;52.588;13.370;2023-02-01T17:18:43;4.87;;;1.60;;
9771;SDS011;4925;52.588;13.370;2023-02-01T17:21:11;4.57;;;0.90;;
9771;SDS011;4925;52.588;13.370;2023-02-01T17:23:38;2.40;;;1.00;;
9771;SDS011;4925;52.588;13.370;2023-02-01T17:26:03;1.13;;;0.60;;
9771;SDS011;4925;52.588;13.370;2023-02-01T17:28:29;0.80;;;0.80;;
9771;SDS011;4925;52.588;13.370;2023-02-01T17:30:55;0.77;;;0.70;;
9771;SDS011;4925;52.588;13.370;2023-02-01T17:35:47;1.53;;;0.80;;
9771;SDS011;4925;52.588;13.370;2023-02-01T17:38:12;1.83;;;0.90;;
9771;SDS011;4925;52.588;13.370;2023-02-01T17:40:39;6.03;;;1.73;;
9771;SDS011;4925;52.588;13.370;2023-02-01T17:43:04;1.13;;;0.90;;
9771;SDS011;4925;52.588;13.370;2023-02-01T17:48:01;1.33;;;0.77;;
9771;SDS011;4925;52.588;13.370;2023-02-01T17:50:32;4.97;;;1.30;;
9771;SDS011;4925;52.588;13.370;2023-02-01T17:52:59;7.93;;;2.37;;
9771;SDS011;4925;52.588;13.370;2023-02-01T17:55:27;5.63;;;0.90;;
9771;SDS011;4925;52.588;13.370;2023-02-01T17:57:53;4.50;;;1.00;;
9771;SDS011;4925;52.588;13.370;2023-02-01T18:00:19;3.57;;;0.90;;
9771;SDS011;4925;52.588;13.370;2023-02-01T18:02:46;7.20;;;2.20;;
9771;SDS011;4925;52.588;13.370;2023-02-01T18:07:37;1.33;;;1.10;;
9771;SDS011;4925;52.588;13.370;2023-02-01T18:10:03;7.10;;;1.40;;
9771;SDS011;4925;52.588;13.370;2023-02-01T18:12:28;2.83;;;1.37;;
9771;SDS011;4925;52.588;13.370;2023-02-01T18:14:57;3.43;;;1.27;;
9771;SDS011;4925;52.588;13.370;2023-02-01T18:17:23;2.47;;;1.03;;
9771;SDS011;4925;52.588;13.370;2023-02-01T18:19:48;6.33;;;1.73;;